Whistler, Alabama
Current Conditions -  °F | °C
As of 5:56 PM on Wednesday 22 Oct 2014 (Local Time) from KMOB Reporting Station
Clear Clear  
Wind Chill: 71°   Ceiling: Unl
Heat Index: 71°   Visibility: 10mi
Dew Point: 50°   Wind: 9mph
Humidity: 47%   Direction: 10°N
Pressure: 30.04"   Gusts: NA
Location:  30.7534°N, 88.1122°W
Report Text: KMOB 222256Z 01008KT 10SM CLR 22/10 A3004 RMK AO2 SLP170 T02170100
Loading
Personal Weather Stations






























Interactive Weather Map New forecast layout! Learn more

10-Day Weather Forecast

Advertisements
Track Severe Weather on mobile